Portada
METAR-TAF:

METAR-TAF

Aeropuertos :

Aeropuerto de Milán-Linate

Milán, Italia

latitud: 45-26N, longitud: 009-17E, altitud: 107 m

Observación

El informe se hizo hace 10 minutos, a las 12:50 UTC
Viento 4 kt del sur, variando entre este y oeste
Temperatura 18°C
Humedad 37%
Presión 1021 hPa
Visibilidad 10 km o más
sin nubes por debajo de 1500 m y sin presencia de cumulonimbus.

METAR: LIML 041250Z 19004KT 090V260 CAVOK 18/03 Q1021 NOSIG

Hora: 15:00 (13:00 UTC)

Pronóstico

El informe se hizo hace 2 horas y 0 minutos, a las 11:00 UTC
Pronóstico válido del 04 a las 12 UTC al 05 a las 12 UTC
Viento 5 kt con dirección variable
Visibilidad 10 km o más
sin nubes por debajo de 1500 m y sin presencia de cumulonimbus.
Temporalmente
del 04 a las 22 UTC al 05 a las 06 UTC
Visibilidad: 4000 m
neblina

TAF: LIML 041100Z 0412/0512 VRB05KT CAVOK TEMPO 0422/0506 4000 BR

Observaciones y pronósticos meteorológicos de más de 4000 aeropuertos (mensajes METAR y TAF).

Los puntos amarillos y rojos representan las estaciones disponibles.

Ponga el ratón en el punto deseado para ver el nombre de la estación.

Haga clic para ver las observaciones y los pronósticos meteorológicos.

Para cambiar el mapa : haga clic en los botones verdes con una cruz de color negro para hacer un zoom, en el botón verde con un guión para alejar o en las flechas verdes para mapas adyacentes.


METAR-TAF: